Terminal Aerodrome Forecast
Issued by NWS

Home | Current Version | Previous Version | Text Only | Print | Product List | Glossary On
Versions: 1 2 3 4 5 6 7 8 9 10 11 12 13 14 15 16 17 18 19
706
FTUS41 KPBZ 292056 AAA
TAFLBE
TAF AMD
KLBE 292056Z 2921/3018 32008KT P6SM BKN015
     FM300300 VRB03KT 3SM BR BKN008
     FM301100 VRB03KT 5SM BR SCT008
     FM301600 10005KT P6SM SCT040=

USA.gov is the U.S. government's official web portal to all federal, state and local government web resources and services.